createdAt,value
2017-12-17T00:01:40.993Z,8.17
2017-12-17T00:04:08.550Z,7.70
2017-12-17T00:06:36.070Z,8.50
2017-12-17T00:09:03.585Z,7.83
2017-12-17T00:11:31.124Z,8.43
2017-12-17T00:13:58.683Z,8.80
2017-12-17T00:16:26.230Z,8.80
2017-12-17T00:18:53.748Z,7.43
2017-12-17T00:21:22.036Z,7.17
2017-12-17T00:23:49.536Z,6.83
2017-12-17T00:26:17.056Z,6.37
2017-12-17T00:28:44.614Z,7.00
2017-12-17T00:31:12.136Z,6.90
2017-12-17T00:33:39.637Z,6.83
2017-12-17T00:36:07.136Z,7.03
2017-12-17T00:38:34.657Z,7.13
2017-12-17T00:41:03.009Z,7.43
2017-12-17T00:43:31.302Z,6.97
2017-12-17T00:45:58.796Z,7.60
2017-12-17T00:48:26.325Z,6.97
2017-12-17T00:50:54.617Z,7.93
2017-12-17T00:53:22.152Z,7.77
2017-12-17T00:55:49.661Z,7.60
2017-12-17T00:58:17.184Z,7.50
2017-12-17T01:00:44.963Z,7.37
2017-12-17T01:03:13.257Z,7.87
2017-12-17T01:05:41.530Z,7.90
2017-12-17T01:08:09.831Z,7.07
2017-12-17T01:10:38.113Z,7.93
2017-12-17T01:13:05.648Z,8.30
2017-12-17T01:15:34.289Z,7.53
2017-12-17T01:18:01.840Z,8.53
2017-12-17T01:20:30.126Z,7.53
2017-12-17T01:22:57.657Z,7.70
2017-12-17T01:25:25.570Z,7.00
2017-12-17T01:27:53.864Z,6.57
2017-12-17T01:30:22.862Z,6.40
2017-12-17T01:32:50.780Z,7.13
2017-12-17T01:35:19.057Z,5.77
2017-12-17T01:37:47.391Z,5.20
2017-12-17T01:40:15.673Z,5.97
2017-12-17T01:42:43.965Z,5.73
2017-12-17T01:45:12.249Z,5.63
2017-12-17T01:47:39.788Z,6.07
2017-12-17T01:50:07.689Z,5.43
2017-12-17T01:52:35.984Z,4.87
2017-12-17T01:55:04.255Z,5.10
2017-12-17T01:57:32.531Z,4.70
2017-12-17T02:00:00.889Z,4.17
2017-12-17T02:02:29.248Z,4.53
2017-12-17T02:04:57.516Z,5.03
2017-12-17T02:07:25.024Z,4.90
2017-12-17T02:09:52.561Z,4.43
2017-12-17T02:12:20.070Z,4.40
2017-12-17T02:14:48.357Z,4.67
2017-12-17T02:17:15.899Z,5.00
2017-12-17T02:19:44.194Z,4.73
2017-12-17T02:22:11.717Z,3.80
2017-12-17T02:24:39.256Z,4.47
2017-12-17T02:27:06.789Z,4.03
2017-12-17T02:29:34.330Z,4.10
2017-12-17T02:32:02.236Z,4.37
2017-12-17T02:34:29.779Z,4.07
2017-12-17T02:36:57.285Z,3.53
2017-12-17T02:39:25.472Z,4.30
2017-12-17T02:41:53.749Z,4.20
2017-12-17T02:44:21.284Z,4.77
2017-12-17T02:46:48.797Z,4.57
2017-12-17T02:49:16.336Z,4.00
2017-12-17T02:51:44.624Z,5.10
2017-12-17T02:54:12.154Z,5.17
2017-12-17T02:56:39.996Z,4.00
2017-12-17T02:59:07.532Z,4.43
2017-12-17T03:01:35.041Z,4.47
2017-12-17T03:04:02.559Z,4.57
2017-12-17T03:06:30.835Z,4.10
2017-12-17T03:08:58.374Z,4.47
2017-12-17T03:11:26.621Z,3.83
2017-12-17T03:13:54.900Z,3.70
2017-12-17T03:16:23.036Z,3.90
2017-12-17T03:18:51.313Z,4.00
2017-12-17T03:21:18.873Z,3.80
2017-12-17T03:23:46.381Z,3.50
2017-12-17T03:26:14.683Z,4.47
2017-12-17T03:28:42.202Z,4.30
2017-12-17T03:31:09.745Z,4.43
2017-12-17T03:33:37.268Z,4.47
2017-12-17T03:36:05.070Z,4.07
2017-12-17T03:38:32.572Z,3.50
2017-12-17T03:41:00.109Z,3.37
2017-12-17T03:43:27.611Z,4.30
2017-12-17T03:45:55.133Z,3.40
2017-12-17T03:48:23.814Z,4.30
2017-12-17T03:50:51.336Z,3.70
2017-12-17T03:53:18.854Z,4.00
2017-12-17T03:55:46.380Z,3.50
2017-12-17T03:58:13.876Z,3.63
2017-12-17T04:00:41.409Z,3.37
2017-12-17T04:03:08.939Z,3.23
2017-12-17T04:05:36.471Z,4.07
2017-12-17T04:08:03.986Z,3.90
2017-12-17T04:10:31.532Z,4.30
2017-12-17T04:12:59.437Z,3.90
2017-12-17T04:15:26.969Z,3.93
2017-12-17T04:17:54.471Z,3.70
2017-12-17T04:20:22.007Z,4.33
2017-12-17T04:22:50.286Z,3.90
2017-12-17T04:25:17.822Z,4.27
2017-12-17T04:27:45.729Z,3.80
2017-12-17T04:30:13.230Z,4.47
2017-12-17T04:32:40.755Z,3.70
2017-12-17T04:35:08.266Z,3.60
2017-12-17T04:37:36.192Z,4.00
2017-12-17T04:40:03.701Z,3.30
2017-12-17T04:42:31.235Z,4.00
2017-12-17T04:44:58.732Z,3.30
2017-12-17T04:47:26.254Z,4.07
2017-12-17T04:49:54.162Z,3.37
2017-12-17T04:52:22.077Z,4.23
2017-12-17T04:54:49.603Z,4.23
2017-12-17T04:57:17.126Z,3.60
2017-12-17T04:59:44.635Z,3.80
2017-12-17T05:02:12.172Z,3.60
2017-12-17T05:04:39.682Z,3.93
2017-12-17T05:07:07.218Z,3.00
2017-12-17T05:09:34.740Z,3.80
2017-12-17T05:12:02.260Z,3.80
2017-12-17T05:14:29.765Z,3.93
2017-12-17T05:16:57.306Z,4.00
2017-12-17T05:19:24.833Z,4.13
2017-12-17T05:21:52.373Z,4.03
2017-12-17T05:24:19.885Z,4.60
2017-12-17T05:26:47.926Z,4.60
2017-12-17T05:29:15.829Z,4.80
2017-12-17T05:31:43.366Z,4.47
2017-12-17T05:34:10.888Z,4.03
2017-12-17T05:36:38.418Z,4.77
2017-12-17T05:39:05.920Z,4.47
2017-12-17T05:41:34.356Z,5.00
2017-12-17T05:44:01.873Z,5.23
2017-12-17T05:46:30.150Z,5.80
2017-12-17T05:48:58.444Z,5.37
2017-12-17T05:51:25.979Z,6.20
2017-12-17T05:53:53.543Z,4.87
2017-12-17T05:56:21.526Z,4.63
2017-12-17T05:58:49.060Z,5.53
2017-12-17T06:01:16.572Z,4.47
2017-12-17T06:03:44.098Z,4.70
2017-12-17T06:06:11.611Z,5.20
2017-12-17T06:08:39.145Z,5.17
2017-12-17T06:11:06.921Z,5.10
2017-12-17T06:13:35.370Z,4.63
2017-12-17T06:16:02.876Z,5.90
2017-12-17T06:18:31.190Z,4.80
2017-12-17T06:20:58.714Z,4.93
2017-12-17T06:23:27.014Z,5.43
2017-12-17T06:25:54.515Z,4.90
2017-12-17T06:28:22.044Z,5.07
2017-12-17T06:30:49.555Z,5.00
2017-12-17T06:33:17.086Z,4.20
2017-12-17T06:35:45.718Z,4.70
2017-12-17T06:38:13.774Z,5.83
2017-12-17T06:40:41.309Z,5.50
2017-12-17T06:43:08.836Z,4.90
2017-12-17T06:45:36.346Z,5.07
2017-12-17T06:48:03.877Z,5.17
2017-12-17T06:50:31.377Z,4.90
2017-12-17T06:52:58.885Z,4.40
2017-12-17T06:55:26.421Z,5.30
2017-12-17T06:57:53.945Z,5.17
2017-12-17T07:00:21.477Z,5.70
2017-12-17T07:02:49.205Z,4.53
2017-12-17T07:05:16.760Z,4.53
2017-12-17T07:07:45.281Z,4.77
2017-12-17T07:10:13.224Z,4.33
2017-12-17T07:12:40.754Z,4.93
2017-12-17T07:15:08.276Z,5.00
2017-12-17T07:17:35.788Z,4.70
2017-12-17T07:20:04.101Z,4.90
2017-12-17T07:22:32.752Z,4.77
2017-12-17T07:25:00.273Z,4.10
2017-12-17T07:27:27.789Z,4.40
2017-12-17T07:29:55.357Z,4.80
2017-12-17T07:32:22.861Z,4.27
2017-12-17T07:34:50.584Z,4.17
2017-12-17T07:37:18.083Z,4.10
2017-12-17T07:39:45.609Z,4.43
2017-12-17T07:42:13.353Z,4.27
2017-12-17T07:44:40.873Z,4.57
2017-12-17T07:47:08.385Z,4.13
2017-12-17T07:49:35.917Z,4.70
2017-12-17T07:52:04.189Z,4.37
2017-12-17T07:54:31.726Z,3.93
2017-12-17T07:56:59.242Z,3.57
2017-12-17T07:59:26.770Z,4.17
2017-12-17T08:01:55.045Z,3.90
2017-12-17T08:04:23.329Z,4.30
2017-12-17T08:06:51.614Z,3.90
2017-12-17T08:09:19.126Z,3.70
2017-12-17T08:11:46.657Z,3.70
2017-12-17T08:14:14.161Z,3.27
2017-12-17T08:16:41.688Z,3.80
2017-12-17T08:19:09.197Z,3.93
2017-12-17T08:21:36.717Z,4.00
2017-12-17T08:24:04.276Z,4.67
2017-12-17T08:26:31.803Z,4.37
2017-12-17T08:28:59.326Z,4.77
2017-12-17T08:31:27.823Z,5.37
2017-12-17T08:33:56.104Z,3.90
2017-12-17T08:36:23.624Z,3.80
2017-12-17T08:38:51.716Z,3.47
2017-12-17T08:41:19.263Z,4.03
2017-12-17T08:43:47.181Z,3.73
2017-12-17T08:46:14.978Z,4.00
2017-12-17T08:48:43.256Z,3.73
2017-12-17T08:51:11.612Z,4.30
2017-12-17T08:53:39.843Z,4.23
2017-12-17T08:56:08.134Z,3.80
2017-12-17T08:58:36.406Z,4.03
2017-12-17T09:01:04.849Z,3.93
2017-12-17T09:03:33.136Z,3.90
2017-12-17T09:06:02.254Z,4.13
2017-12-17T09:08:29.766Z,4.20
2017-12-17T09:10:58.847Z,4.87
2017-12-17T09:13:26.697Z,4.00
2017-12-17T09:15:54.984Z,3.93
2017-12-17T09:18:23.273Z,4.63
2017-12-17T09:20:51.547Z,4.20
2017-12-17T09:23:20.704Z,5.77
2017-12-17T09:25:48.215Z,5.17
2017-12-17T09:28:16.502Z,4.20
2017-12-17T09:30:44.782Z,3.60
2017-12-17T09:33:12.370Z,4.40
2017-12-17T09:35:40.265Z,3.37
2017-12-17T09:38:08.556Z,3.03
2017-12-17T09:40:36.833Z,2.93
2017-12-17T09:43:05.122Z,4.20
2017-12-17T09:45:33.513Z,3.53
2017-12-17T09:48:01.821Z,3.40
2017-12-17T09:50:30.471Z,8.87
2017-12-17T09:52:58.816Z,4.50
2017-12-17T09:55:27.165Z,3.33
2017-12-17T09:57:55.456Z,2.73
2017-12-17T10:00:23.723Z,3.30
2017-12-17T10:02:52.770Z,3.50
2017-12-17T10:05:21.188Z,2.57
2017-12-17T10:07:48.721Z,3.27
2017-12-17T10:10:17.110Z,2.43
2017-12-17T10:12:45.428Z,4.27
2017-12-17T10:15:13.710Z,2.83
2017-12-17T10:17:42.013Z,2.50
2017-12-17T10:20:10.292Z,2.97
2017-12-17T10:22:38.587Z,2.20
2017-12-17T10:25:06.096Z,2.60
2017-12-17T10:27:34.026Z,2.73
2017-12-17T10:30:03.024Z,2.20
2017-12-17T10:32:30.557Z,2.07
2017-12-17T10:34:58.066Z,2.00
2017-12-17T10:37:25.973Z,1.90
2017-12-17T10:39:54.284Z,1.90
2017-12-17T10:42:22.571Z,1.70
2017-12-17T10:44:51.424Z,1.80
2017-12-17T10:47:19.730Z,2.00
2017-12-17T10:49:47.648Z,3.20
2017-12-17T10:52:15.945Z,2.10
2017-12-17T10:54:44.254Z,2.00
2017-12-17T10:57:12.540Z,3.23
2017-12-17T10:59:40.905Z,2.37
2017-12-17T11:02:09.918Z,2.20
2017-12-17T11:04:37.843Z,2.20
2017-12-17T11:07:06.867Z,2.70
2017-12-17T11:09:35.013Z,1.70
2017-12-17T11:12:05.772Z,1.67
2017-12-17T11:14:33.704Z,1.97
2017-12-17T11:17:01.980Z,2.33
2017-12-17T11:19:29.690Z,1.90
2017-12-17T11:21:57.742Z,1.60
2017-12-17T11:24:26.046Z,2.10
2017-12-17T11:26:54.966Z,1.60
2017-12-17T11:29:22.500Z,1.90
2017-12-17T11:31:50.807Z,2.00
2017-12-17T11:34:19.142Z,2.50
2017-12-17T11:36:47.407Z,1.70
2017-12-17T11:39:16.605Z,2.00
2017-12-17T11:41:45.568Z,1.63
2017-12-17T11:44:13.886Z,1.83
2017-12-17T11:46:42.179Z,1.80
2017-12-17T11:49:10.478Z,2.10
2017-12-17T11:51:38.000Z,1.67
2017-12-17T11:54:05.969Z,1.90
2017-12-17T11:56:34.280Z,1.70
2017-12-17T11:59:03.017Z,1.67
2017-12-17T12:01:30.937Z,2.10
2017-12-17T12:03:59.216Z,2.17
2017-12-17T12:06:27.596Z,3.80
2017-12-17T12:08:56.007Z,2.50
2017-12-17T12:11:24.303Z,5.23
2017-12-17T12:13:52.585Z,9.53
2017-12-17T12:16:21.659Z,6.60
2017-12-17T12:18:49.457Z,2.60
2017-12-17T12:21:17.803Z,2.23
2017-12-17T12:23:46.079Z,1.60
2017-12-17T12:26:14.436Z,2.17
2017-12-17T12:28:42.713Z,2.30
2017-12-17T12:31:11.022Z,2.03
2017-12-17T12:33:39.357Z,2.40
2017-12-17T12:36:07.656Z,2.97
2017-12-17T12:38:35.990Z,1.70
2017-12-17T12:41:04.356Z,1.93
2017-12-17T12:43:32.954Z,1.70
2017-12-17T12:46:01.249Z,1.97
2017-12-17T12:48:29.532Z,2.10
2017-12-17T12:50:57.852Z,1.97
2017-12-17T12:53:26.271Z,2.00
2017-12-17T12:55:55.365Z,2.20
2017-12-17T12:58:22.923Z,1.80
2017-12-17T13:00:51.216Z,2.10
2017-12-17T13:03:19.494Z,2.47
2017-12-17T13:05:47.781Z,1.90
2017-12-17T13:08:16.057Z,2.60
2017-12-17T13:10:44.398Z,1.87
2017-12-17T13:13:12.851Z,2.50
2017-12-17T13:15:41.160Z,2.17
2017-12-17T13:18:10.139Z,1.80
2017-12-17T13:20:38.124Z,2.10
2017-12-17T13:23:06.418Z,1.97
2017-12-17T13:25:34.715Z,2.53
2017-12-17T13:28:03.005Z,2.27
2017-12-17T13:30:31.336Z,2.17
2017-12-17T13:33:00.446Z,2.70
2017-12-17T13:35:27.957Z,1.87
2017-12-17T13:37:56.248Z,2.50
2017-12-17T13:40:25.462Z,1.93
2017-12-17T13:42:53.493Z,1.83
2017-12-17T13:45:21.430Z,1.90
2017-12-17T13:47:49.717Z,1.90
2017-12-17T13:50:17.989Z,1.80
2017-12-17T13:52:46.308Z,1.90
2017-12-17T13:55:14.844Z,2.20
2017-12-17T13:57:43.170Z,1.93
2017-12-17T14:00:11.436Z,2.57
2017-12-17T14:02:39.791Z,2.57
2017-12-17T14:05:08.113Z,2.50
2017-12-17T14:07:36.405Z,2.90
2017-12-17T14:10:05.120Z,2.70
2017-12-17T14:12:33.052Z,2.83
2017-12-17T14:15:01.487Z,2.90
2017-12-17T14:17:29.950Z,2.37
2017-12-17T14:19:58.282Z,2.80
2017-12-17T14:22:26.633Z,3.50
2017-12-17T14:24:54.912Z,3.20
2017-12-17T14:27:23.281Z,3.17
2017-12-17T14:29:51.610Z,2.60
2017-12-17T14:32:19.904Z,2.40
2017-12-17T14:34:48.182Z,2.50
2017-12-17T14:37:16.692Z,2.63
2017-12-17T14:39:45.058Z,2.70
2017-12-17T14:42:13.439Z,1.87
2017-12-17T14:44:41.777Z,2.53
2017-12-17T14:47:10.122Z,2.00
2017-12-17T14:49:39.244Z,2.80
2017-12-17T14:52:07.593Z,2.87
2017-12-17T14:54:36.369Z,3.13
2017-12-17T14:57:04.696Z,2.97
2017-12-17T14:59:32.988Z,2.60
2017-12-17T15:02:01.283Z,3.80
2017-12-17T15:04:29.635Z,2.23
2017-12-17T15:06:58.197Z,2.97
2017-12-17T15:09:26.503Z,3.03
2017-12-17T15:11:54.824Z,2.83
2017-12-17T15:14:23.480Z,3.47
2017-12-17T15:16:51.430Z,3.13
2017-12-17T15:19:19.731Z,3.07
2017-12-17T15:21:48.128Z,2.80
2017-12-17T15:24:16.434Z,3.00
2017-12-17T15:26:44.760Z,3.17
2017-12-17T15:29:13.609Z,3.33
2017-12-17T15:31:42.530Z,3.10
2017-12-17T15:34:10.071Z,3.73
2017-12-17T15:36:42.224Z,3.43
2017-12-17T15:39:11.599Z,6.37
2017-12-17T15:41:39.163Z,5.30
2017-12-17T15:44:07.944Z,3.60
2017-12-17T15:46:37.052Z,4.47
2017-12-17T15:49:05.360Z,4.80
2017-12-17T15:51:33.693Z,4.30
2017-12-17T15:54:02.043Z,3.53
2017-12-17T15:56:30.318Z,4.20
2017-12-17T15:58:58.618Z,4.77
2017-12-17T16:01:26.882Z,3.87
2017-12-17T16:03:54.419Z,4.47
2017-12-17T16:06:22.340Z,4.57
2017-12-17T16:08:50.680Z,3.80
2017-12-17T16:11:19.028Z,4.17
2017-12-17T16:13:47.356Z,3.33
2017-12-17T16:16:15.698Z,3.90
2017-12-17T16:18:44.032Z,6.03
2017-12-17T16:21:12.384Z,3.50
2017-12-17T16:23:40.747Z,4.27
2017-12-17T16:26:09.220Z,3.80
2017-12-17T16:28:37.569Z,4.27
2017-12-17T16:31:05.924Z,4.07
2017-12-17T16:33:34.257Z,4.53
2017-12-17T16:36:04.126Z,4.93
2017-12-17T16:38:33.854Z,3.50
2017-12-17T16:41:03.138Z,4.50
2017-12-17T16:43:31.470Z,3.80
2017-12-17T16:45:59.820Z,4.53
2017-12-17T16:48:28.142Z,4.27
2017-12-17T16:50:57.389Z,3.87
2017-12-17T16:53:24.926Z,3.93
2017-12-17T16:55:53.254Z,4.60
2017-12-17T16:58:21.619Z,7.30
2017-12-17T17:00:49.601Z,4.07
2017-12-17T17:03:17.496Z,4.73
2017-12-17T17:05:45.517Z,4.93
2017-12-17T17:08:13.867Z,4.53
2017-12-17T17:10:43.020Z,4.00
2017-12-17T17:13:10.604Z,4.30
2017-12-17T17:15:38.954Z,3.63
2017-12-17T17:18:09.022Z,4.10
2017-12-17T17:20:37.068Z,4.00
2017-12-17T17:23:05.455Z,4.30
2017-12-17T17:25:34.453Z,4.67
2017-12-17T17:28:03.860Z,4.30
2017-12-17T17:30:31.821Z,4.70
2017-12-17T17:33:00.226Z,4.37
2017-12-17T17:35:28.728Z,4.63
2017-12-17T17:37:56.711Z,5.90
2017-12-17T17:40:25.046Z,6.57
2017-12-17T17:42:53.392Z,4.70
2017-12-17T17:45:21.935Z,4.13
2017-12-17T17:47:50.551Z,4.80
2017-12-17T17:50:19.747Z,5.17
2017-12-17T17:52:47.342Z,4.60
2017-12-17T17:55:15.876Z,5.00
2017-12-17T17:57:44.646Z,5.07
2017-12-17T18:00:13.862Z,5.80
2017-12-17T18:02:41.423Z,4.73
2017-12-17T18:05:09.749Z,5.60
2017-12-17T18:07:38.296Z,4.83
2017-12-17T18:10:06.622Z,5.20
2017-12-17T18:12:35.606Z,5.60
2017-12-17T18:15:03.964Z,4.23
2017-12-17T18:17:32.656Z,5.60
2017-12-17T18:20:00.385Z,4.87
2017-12-17T18:22:28.299Z,5.17
2017-12-17T18:24:56.692Z,5.00
2017-12-17T18:27:25.685Z,4.97
2017-12-17T18:29:55.014Z,5.03
2017-12-17T18:32:23.656Z,5.80
2017-12-17T18:34:52.589Z,4.53
2017-12-17T18:37:20.991Z,4.53
2017-12-17T18:39:48.886Z,4.77
2017-12-17T18:42:16.433Z,4.87
2017-12-17T18:44:48.721Z,4.43
2017-12-17T18:47:17.148Z,4.60
2017-12-17T18:49:45.680Z,5.00
2017-12-17T18:52:14.006Z,6.23
2017-12-17T18:54:43.153Z,4.90
2017-12-17T18:57:11.575Z,4.87
2017-12-17T18:59:39.876Z,4.93
2017-12-17T19:02:07.431Z,5.10
2017-12-17T19:04:35.778Z,5.07
2017-12-17T19:07:04.096Z,5.87
2017-12-17T19:09:32.542Z,5.57
2017-12-17T19:12:00.871Z,5.50
2017-12-17T19:14:29.279Z,6.30
2017-12-17T19:16:57.630Z,5.20
2017-12-17T19:19:25.992Z,5.13
2017-12-17T19:21:54.328Z,6.00
2017-12-17T19:24:23.311Z,5.83
2017-12-17T19:26:51.790Z,5.77
2017-12-17T19:29:19.784Z,5.53
2017-12-17T19:31:47.755Z,5.13
2017-12-17T19:34:16.105Z,4.77
2017-12-17T19:36:44.430Z,4.87
2017-12-17T19:39:12.789Z,5.27
2017-12-17T19:41:41.975Z,5.07
2017-12-17T19:44:09.540Z,5.30
2017-12-17T19:46:37.898Z,4.83
2017-12-17T19:49:06.248Z,4.90
2017-12-17T19:51:34.600Z,5.20
2017-12-17T19:54:03.794Z,4.27
2017-12-17T19:56:31.893Z,4.13
2017-12-17T19:59:00.258Z,4.30
2017-12-17T20:01:28.456Z,4.37
2017-12-17T20:03:57.672Z,4.67
2017-12-17T20:06:26.828Z,4.17
2017-12-17T20:08:54.400Z,4.00
2017-12-17T20:11:22.765Z,4.97
2017-12-17T20:13:51.929Z,5.00
2017-12-17T20:16:19.514Z,4.60
2017-12-17T20:18:48.496Z,4.57
2017-12-17T20:21:16.498Z,4.60
2017-12-17T20:23:44.470Z,4.70
2017-12-17T20:26:13.735Z,4.73
2017-12-17T20:28:41.316Z,5.20
2017-12-17T20:31:10.143Z,6.57
2017-12-17T20:33:39.458Z,5.50
2017-12-17T20:36:10.027Z,5.33
2017-12-17T20:38:38.411Z,5.47
2017-12-17T20:41:06.006Z,3.80
2017-12-17T20:43:33.963Z,5.03
2017-12-17T20:46:02.304Z,5.47
2017-12-17T20:48:32.496Z,5.40
2017-12-17T20:51:00.952Z,6.07
2017-12-17T20:53:29.718Z,5.60
2017-12-17T20:55:57.304Z,8.03
2017-12-17T20:58:25.382Z,6.30
2017-12-17T21:00:53.743Z,7.30
2017-12-17T21:03:22.122Z,8.07
2017-12-17T21:05:50.477Z,7.00
2017-12-17T21:08:20.333Z,6.33
2017-12-17T21:10:49.353Z,5.43
2017-12-17T21:13:16.931Z,5.63
2017-12-17T21:15:45.263Z,6.23
2017-12-17T21:18:15.379Z,6.27
2017-12-17T21:20:44.444Z,5.07
2017-12-17T21:23:12.039Z,5.60
2017-12-17T21:25:39.998Z,6.50
2017-12-17T21:28:08.367Z,5.83
2017-12-17T21:30:37.240Z,5.53
2017-12-17T21:33:05.907Z,5.53
2017-12-17T21:35:33.485Z,5.47
2017-12-17T21:38:03.382Z,6.03
2017-12-17T21:40:31.398Z,6.07
2017-12-17T21:42:59.760Z,6.27
2017-12-17T21:45:28.948Z,5.67
2017-12-17T21:47:56.537Z,6.57
2017-12-17T21:50:24.877Z,5.30
2017-12-17T21:52:53.731Z,6.10
2017-12-17T21:55:21.413Z,6.00
2017-12-17T21:57:50.046Z,6.20
2017-12-17T22:00:18.009Z,6.90
2017-12-17T22:02:46.388Z,6.70
2017-12-17T22:05:14.754Z,7.13
2017-12-17T22:07:43.700Z,6.27
2017-12-17T22:10:11.292Z,6.67
2017-12-17T22:12:38.856Z,6.90
2017-12-17T22:15:06.863Z,6.63
2017-12-17T22:17:36.092Z,7.30
2017-12-17T22:20:03.674Z,6.33
2017-12-17T22:22:31.677Z,7.10
2017-12-17T22:25:00.110Z,6.10
2017-12-17T22:27:28.455Z,6.80
2017-12-17T22:29:56.802Z,7.20
2017-12-17T22:32:25.783Z,6.43
2017-12-17T22:34:54.139Z,6.97
2017-12-17T22:37:22.304Z,6.00
2017-12-17T22:39:51.087Z,6.07
2017-12-17T22:42:19.288Z,6.47
2017-12-17T22:44:47.672Z,7.33
2017-12-17T22:47:16.005Z,6.90
2017-12-17T22:49:44.483Z,6.30
2017-12-17T22:52:12.807Z,6.60
2017-12-17T22:54:41.880Z,6.80
2017-12-17T22:57:09.862Z,6.57
2017-12-17T22:59:38.200Z,6.90
2017-12-17T23:02:06.735Z,7.60
2017-12-17T23:04:35.090Z,6.97
2017-12-17T23:07:04.159Z,7.03
2017-12-17T23:09:32.566Z,7.43
2017-12-17T23:12:00.089Z,7.80
2017-12-17T23:14:28.388Z,7.67
2017-12-17T23:16:56.729Z,7.80
2017-12-17T23:19:25.174Z,7.87
2017-12-17T23:21:54.473Z,6.87
2017-12-17T23:24:22.947Z,8.17
2017-12-17T23:26:50.489Z,6.80
2017-12-17T23:29:18.393Z,7.10
2017-12-17T23:31:47.809Z,7.10
2017-12-17T23:34:17.703Z,7.40
2017-12-17T23:36:46.009Z,7.43
2017-12-17T23:39:14.301Z,6.97
2017-12-17T23:41:41.832Z,6.77
2017-12-17T23:44:09.746Z,7.50
2017-12-17T23:46:38.045Z,8.50
2017-12-17T23:49:07.170Z,6.20
2017-12-17T23:51:36.229Z,6.77
2017-12-17T23:54:04.501Z,7.30
2017-12-17T23:56:32.814Z,7.60
2017-12-17T23:59:01.086Z,6.73
